sensor_id;sensor_type;location;lat;lon;timestamp;temperature;humidity
18906;DHT22;9585;51.018;4.282;2023-03-26T00:01:19;7.90;99.90
18906;DHT22;9585;51.018;4.282;2023-03-26T00:03:52;7.90;99.90
18906;DHT22;9585;51.018;4.282;2023-03-26T00:06:25;7.90;99.90
18906;DHT22;9585;51.018;4.282;2023-03-26T00:08:54;8.00;99.90
18906;DHT22;9585;51.018;4.282;2023-03-26T00:11:24;8.00;99.90
18906;DHT22;9585;51.018;4.282;2023-03-26T00:13:52;8.00;99.90
18906;DHT22;9585;51.018;4.282;2023-03-26T00:16:25;8.00;99.90
18906;DHT22;9585;51.018;4.282;2023-03-26T00:18:54;8.10;99.90
18906;DHT22;9585;51.018;4.282;2023-03-26T00:21:23;8.10;99.90
18906;DHT22;9585;51.018;4.282;2023-03-26T00:23:53;8.10;99.90
18906;DHT22;9585;51.018;4.282;2023-03-26T00:26:20;8.20;99.90
18906;DHT22;9585;51.018;4.282;2023-03-26T00:28:48;8.20;99.90
18906;DHT22;9585;51.018;4.282;2023-03-26T00:31:16;8.20;99.90
18906;DHT22;9585;51.018;4.282;2023-03-26T00:33:44;8.20;99.90
18906;DHT22;9585;51.018;4.282;2023-03-26T00:36:15;8.20;99.90
18906;DHT22;9585;51.018;4.282;2023-03-26T00:38:45;8.20;99.90
18906;DHT22;9585;51.018;4.282;2023-03-26T00:41:15;8.30;99.90
18906;DHT22;9585;51.018;4.282;2023-03-26T00:43:51;8.30;99.90
18906;DHT22;9585;51.018;4.282;2023-03-26T00:46:20;8.30;99.90
18906;DHT22;9585;51.018;4.282;2023-03-26T00:48:48;8.30;99.90
18906;DHT22;9585;51.018;4.282;2023-03-26T00:51:19;8.30;99.90
18906;DHT22;9585;51.018;4.282;2023-03-26T00:53:48;8.30;99.90
18906;DHT22;9585;51.018;4.282;2023-03-26T00:56:18;8.40;99.90
18906;DHT22;9585;51.018;4.282;2023-03-26T00:58:46;8.40;99.90
18906;DHT22;9585;51.018;4.282;2023-03-26T01:01:17;8.30;99.90
18906;DHT22;9585;51.018;4.282;2023-03-26T01:03:46;8.30;99.90
18906;DHT22;9585;51.018;4.282;2023-03-26T01:06:21;8.30;99.90
18906;DHT22;9585;51.018;4.282;2023-03-26T01:08:53;8.30;99.90
18906;DHT22;9585;51.018;4.282;2023-03-26T01:11:26;8.30;99.90
18906;DHT22;9585;51.018;4.282;2023-03-26T01:13:57;8.30;99.90
18906;DHT22;9585;51.018;4.282;2023-03-26T01:16:27;8.20;99.90
18906;DHT22;9585;51.018;4.282;2023-03-26T01:18:56;8.20;99.90
18906;DHT22;9585;51.018;4.282;2023-03-26T01:21:27;8.20;99.90
18906;DHT22;9585;51.018;4.282;2023-03-26T01:23:59;8.20;99.90
18906;DHT22;9585;51.018;4.282;2023-03-26T01:29:23;8.20;99.90
18906;DHT22;9585;51.018;4.282;2023-03-26T01:32:02;8.10;99.90
18906;DHT22;9585;51.018;4.282;2023-03-26T01:34:40;8.10;99.90
18906;DHT22;9585;51.018;4.282;2023-03-26T01:37:18;8.10;99.90
18906;DHT22;9585;51.018;4.282;2023-03-26T01:39:55;8.10;99.90
18906;DHT22;9585;51.018;4.282;2023-03-26T01:42:37;8.00;99.90
18906;DHT22;9585;51.018;4.282;2023-03-26T01:45:10;8.00;99.90
18906;DHT22;9585;51.018;4.282;2023-03-26T01:47:44;8.00;99.90
18906;DHT22;9585;51.018;4.282;2023-03-26T01:50:12;8.00;99.90
18906;DHT22;9585;51.018;4.282;2023-03-26T01:52:40;8.00;99.90
18906;DHT22;9585;51.018;4.282;2023-03-26T01:55:09;8.00;99.90
18906;DHT22;9585;51.018;4.282;2023-03-26T01:57:45;8.00;99.90
18906;DHT22;9585;51.018;4.282;2023-03-26T02:00:21;8.10;99.90
18906;DHT22;9585;51.018;4.282;2023-03-26T02:03:11;8.10;99.90
18906;DHT22;9585;51.018;4.282;2023-03-26T02:05:46;8.10;99.90
18906;DHT22;9585;51.018;4.282;2023-03-26T02:08:19;8.00;99.90
18906;DHT22;9585;51.018;4.282;2023-03-26T02:10:52;8.00;99.90
18906;DHT22;9585;51.018;4.282;2023-03-26T02:13:22;8.00;99.90
18906;DHT22;9585;51.018;4.282;2023-03-26T02:15:58;8.00;99.90
18906;DHT22;9585;51.018;4.282;2023-03-26T02:18:27;8.00;99.90
18906;DHT22;9585;51.018;4.282;2023-03-26T02:21:03;8.00;99.90
18906;DHT22;9585;51.018;4.282;2023-03-26T02:23:31;8.00;99.90
18906;DHT22;9585;51.018;4.282;2023-03-26T02:26:05;7.90;99.90
18906;DHT22;9585;51.018;4.282;2023-03-26T02:28:33;7.90;99.90
18906;DHT22;9585;51.018;4.282;2023-03-26T02:31:00;7.90;99.90
18906;DHT22;9585;51.018;4.282;2023-03-26T02:33:33;7.90;99.90
18906;DHT22;9585;51.018;4.282;2023-03-26T02:36:02;7.90;99.90
18906;DHT22;9585;51.018;4.282;2023-03-26T02:38:34;7.80;99.90
18906;DHT22;9585;51.018;4.282;2023-03-26T02:41:04;7.80;99.90
18906;DHT22;9585;51.018;4.282;2023-03-26T02:43:31;7.80;99.90
18906;DHT22;9585;51.018;4.282;2023-03-26T02:45:59;7.80;99.90
18906;DHT22;9585;51.018;4.282;2023-03-26T02:48:26;7.80;99.90
18906;DHT22;9585;51.018;4.282;2023-03-26T02:50:53;7.70;99.90
18906;DHT22;9585;51.018;4.282;2023-03-26T02:53:21;7.60;99.90
18906;DHT22;9585;51.018;4.282;2023-03-26T02:55:49;7.60;99.90
18906;DHT22;9585;51.018;4.282;2023-03-26T02:58:17;7.70;99.90
18906;DHT22;9585;51.018;4.282;2023-03-26T03:00:44;7.60;99.90
18906;DHT22;9585;51.018;4.282;2023-03-26T03:03:12;7.60;99.90
18906;DHT22;9585;51.018;4.282;2023-03-26T03:05:42;7.60;99.90
18906;DHT22;9585;51.018;4.282;2023-03-26T03:08:09;7.50;99.90
18906;DHT22;9585;51.018;4.282;2023-03-26T03:10:36;7.60;99.90
18906;DHT22;9585;51.018;4.282;2023-03-26T03:13:04;7.50;99.90
18906;DHT22;9585;51.018;4.282;2023-03-26T03:15:33;7.50;99.90
18906;DHT22;9585;51.018;4.282;2023-03-26T03:18:01;7.60;99.90
18906;DHT22;9585;51.018;4.282;2023-03-26T03:20:28;7.60;99.90
18906;DHT22;9585;51.018;4.282;2023-03-26T03:22:56;7.60;99.90
18906;DHT22;9585;51.018;4.282;2023-03-26T03:25:23;7.60;99.90
18906;DHT22;9585;51.018;4.282;2023-03-26T03:27:50;7.60;99.90
18906;DHT22;9585;51.018;4.282;2023-03-26T03:30:18;7.60;99.90
18906;DHT22;9585;51.018;4.282;2023-03-26T03:32:47;7.60;99.90
18906;DHT22;9585;51.018;4.282;2023-03-26T03:35:14;7.70;99.90
18906;DHT22;9585;51.018;4.282;2023-03-26T03:37:41;7.70;99.90
18906;DHT22;9585;51.018;4.282;2023-03-26T03:40:09;7.60;99.90
18906;DHT22;9585;51.018;4.282;2023-03-26T03:42:36;7.50;99.90
18906;DHT22;9585;51.018;4.282;2023-03-26T03:45:05;7.60;99.90
18906;DHT22;9585;51.018;4.282;2023-03-26T03:47:32;7.60;99.90
18906;DHT22;9585;51.018;4.282;2023-03-26T03:50:01;7.60;99.90
18906;DHT22;9585;51.018;4.282;2023-03-26T03:52:29;7.60;99.90
18906;DHT22;9585;51.018;4.282;2023-03-26T03:54:56;7.60;99.90
18906;DHT22;9585;51.018;4.282;2023-03-26T03:57:25;7.60;99.90
18906;DHT22;9585;51.018;4.282;2023-03-26T03:59:53;7.60;99.90
18906;DHT22;9585;51.018;4.282;2023-03-26T04:02:23;7.50;99.90
18906;DHT22;9585;51.018;4.282;2023-03-26T04:04:55;7.50;99.90
18906;DHT22;9585;51.018;4.282;2023-03-26T04:07:26;7.40;99.90
18906;DHT22;9585;51.018;4.282;2023-03-26T04:09:55;7.40;99.90
18906;DHT22;9585;51.018;4.282;2023-03-26T04:12:25;7.40;99.90
18906;DHT22;9585;51.018;4.282;2023-03-26T04:14:52;7.40;99.90
18906;DHT22;9585;51.018;4.282;2023-03-26T04:17:20;7.40;99.90
18906;DHT22;9585;51.018;4.282;2023-03-26T04:19:48;7.40;99.90
18906;DHT22;9585;51.018;4.282;2023-03-26T04:22:17;7.40;99.90
18906;DHT22;9585;51.018;4.282;2023-03-26T04:24:47;7.40;99.90
18906;DHT22;9585;51.018;4.282;2023-03-26T04:27:16;7.40;99.90
18906;DHT22;9585;51.018;4.282;2023-03-26T04:29:47;7.40;99.90
18906;DHT22;9585;51.018;4.282;2023-03-26T04:32:20;7.40;99.90
18906;DHT22;9585;51.018;4.282;2023-03-26T04:34:49;7.40;99.90
18906;DHT22;9585;51.018;4.282;2023-03-26T04:37:23;7.40;99.90
18906;DHT22;9585;51.018;4.282;2023-03-26T04:39:54;7.40;99.90
18906;DHT22;9585;51.018;4.282;2023-03-26T04:42:21;7.40;99.90
18906;DHT22;9585;51.018;4.282;2023-03-26T04:44:48;7.30;99.90
18906;DHT22;9585;51.018;4.282;2023-03-26T04:47:17;7.30;99.90
18906;DHT22;9585;51.018;4.282;2023-03-26T04:49:44;7.30;99.90
18906;DHT22;9585;51.018;4.282;2023-03-26T04:52:12;7.30;99.90
18906;DHT22;9585;51.018;4.282;2023-03-26T04:54:43;7.30;99.90
18906;DHT22;9585;51.018;4.282;2023-03-26T04:57:16;7.40;99.90
18906;DHT22;9585;51.018;4.282;2023-03-26T04:59:45;7.30;99.90
18906;DHT22;9585;51.018;4.282;2023-03-26T05:02:12;7.30;99.90
18906;DHT22;9585;51.018;4.282;2023-03-26T05:04:40;7.30;99.90
18906;DHT22;9585;51.018;4.282;2023-03-26T05:07:10;7.30;99.90
18906;DHT22;9585;51.018;4.282;2023-03-26T05:09:37;7.30;99.90
18906;DHT22;9585;51.018;4.282;2023-03-26T05:12:05;7.30;99.90
18906;DHT22;9585;51.018;4.282;2023-03-26T05:14:34;7.30;99.90
18906;DHT22;9585;51.018;4.282;2023-03-26T05:17:02;7.30;99.90
18906;DHT22;9585;51.018;4.282;2023-03-26T05:19:30;7.30;99.90
18906;DHT22;9585;51.018;4.282;2023-03-26T05:21:58;7.30;99.90
18906;DHT22;9585;51.018;4.282;2023-03-26T05:24:25;7.20;99.90
18906;DHT22;9585;51.018;4.282;2023-03-26T05:26:53;7.10;99.90
18906;DHT22;9585;51.018;4.282;2023-03-26T05:29:20;7.20;99.90
18906;DHT22;9585;51.018;4.282;2023-03-26T05:31:50;7.20;99.90
18906;DHT22;9585;51.018;4.282;2023-03-26T05:34:18;7.30;99.90
18906;DHT22;9585;51.018;4.282;2023-03-26T05:36:48;7.30;99.90
18906;DHT22;9585;51.018;4.282;2023-03-26T05:39:16;7.40;99.90
18906;DHT22;9585;51.018;4.282;2023-03-26T05:41:43;7.40;99.90
18906;DHT22;9585;51.018;4.282;2023-03-26T05:44:10;7.40;99.90
18906;DHT22;9585;51.018;4.282;2023-03-26T05:46:38;7.40;99.90
18906;DHT22;9585;51.018;4.282;2023-03-26T05:49:06;7.50;99.90
18906;DHT22;9585;51.018;4.282;2023-03-26T05:51:34;7.50;99.90
18906;DHT22;9585;51.018;4.282;2023-03-26T05:54:01;7.40;99.90
18906;DHT22;9585;51.018;4.282;2023-03-26T05:56:28;7.30;99.90
18906;DHT22;9585;51.018;4.282;2023-03-26T05:58:56;7.30;99.90
18906;DHT22;9585;51.018;4.282;2023-03-26T06:01:23;7.40;99.90
18906;DHT22;9585;51.018;4.282;2023-03-26T06:03:52;7.30;99.90
18906;DHT22;9585;51.018;4.282;2023-03-26T06:06:35;7.30;99.90
18906;DHT22;9585;51.018;4.282;2023-03-26T06:09:09;7.30;99.90
18906;DHT22;9585;51.018;4.282;2023-03-26T06:11:38;7.20;99.90
18906;DHT22;9585;51.018;4.282;2023-03-26T06:14:06;7.10;99.90
18906;DHT22;9585;51.018;4.282;2023-03-26T06:16:34;7.10;99.90
18906;DHT22;9585;51.018;4.282;2023-03-26T06:19:01;7.20;99.90
18906;DHT22;9585;51.018;4.282;2023-03-26T06:21:28;7.20;99.90
18906;DHT22;9585;51.018;4.282;2023-03-26T06:23:58;7.20;99.90
18906;DHT22;9585;51.018;4.282;2023-03-26T06:26:25;7.20;99.90
18906;DHT22;9585;51.018;4.282;2023-03-26T06:28:52;7.20;99.90
18906;DHT22;9585;51.018;4.282;2023-03-26T06:31:20;7.20;99.90
18906;DHT22;9585;51.018;4.282;2023-03-26T06:33:47;7.20;99.90
18906;DHT22;9585;51.018;4.282;2023-03-26T06:36:14;7.10;99.90
18906;DHT22;9585;51.018;4.282;2023-03-26T06:38:42;7.10;99.90
18906;DHT22;9585;51.018;4.282;2023-03-26T06:41:11;7.10;99.90
18906;DHT22;9585;51.018;4.282;2023-03-26T06:43:38;7.10;99.90
18906;DHT22;9585;51.018;4.282;2023-03-26T06:46:06;7.00;99.90
18906;DHT22;9585;51.018;4.282;2023-03-26T06:48:44;7.00;99.90
18906;DHT22;9585;51.018;4.282;2023-03-26T06:51:18;7.00;99.90
18906;DHT22;9585;51.018;4.282;2023-03-26T06:53:46;7.00;99.90
18906;DHT22;9585;51.018;4.282;2023-03-26T06:56:15;6.90;99.90
18906;DHT22;9585;51.018;4.282;2023-03-26T06:58:42;6.90;99.90
18906;DHT22;9585;51.018;4.282;2023-03-26T07:01:10;6.90;99.90
18906;DHT22;9585;51.018;4.282;2023-03-26T07:03:37;6.80;99.90
18906;DHT22;9585;51.018;4.282;2023-03-26T07:06:05;6.80;99.90
18906;DHT22;9585;51.018;4.282;2023-03-26T07:08:33;6.60;99.90
18906;DHT22;9585;51.018;4.282;2023-03-26T07:11:00;6.60;99.90
18906;DHT22;9585;51.018;4.282;2023-03-26T07:13:31;6.50;99.90
18906;DHT22;9585;51.018;4.282;2023-03-26T07:15:59;6.50;99.90
18906;DHT22;9585;51.018;4.282;2023-03-26T07:18:27;6.50;99.90
18906;DHT22;9585;51.018;4.282;2023-03-26T07:20:57;6.50;99.90
18906;DHT22;9585;51.018;4.282;2023-03-26T07:23:32;6.40;99.90
18906;DHT22;9585;51.018;4.282;2023-03-26T07:26:13;6.30;99.90
18906;DHT22;9585;51.018;4.282;2023-03-26T07:29:13;6.30;99.90
18906;DHT22;9585;51.018;4.282;2023-03-26T07:31:53;6.30;99.90
18906;DHT22;9585;51.018;4.282;2023-03-26T07:34:36;6.20;99.90
18906;DHT22;9585;51.018;4.282;2023-03-26T07:37:14;6.10;99.90
18906;DHT22;9585;51.018;4.282;2023-03-26T07:39:53;6.10;99.90
18906;DHT22;9585;51.018;4.282;2023-03-26T07:42:41;5.90;99.90
18906;DHT22;9585;51.018;4.282;2023-03-26T07:45:20;5.90;99.90
18906;DHT22;9585;51.018;4.282;2023-03-26T07:47:50;5.90;99.90
18906;DHT22;9585;51.018;4.282;2023-03-26T07:50:20;5.80;99.90
18906;DHT22;9585;51.018;4.282;2023-03-26T07:55:31;5.70;99.90
18906;DHT22;9585;51.018;4.282;2023-03-26T08:01:11;5.90;99.90
18906;DHT22;9585;51.018;4.282;2023-03-26T08:04:16;5.90;99.90
18906;DHT22;9585;51.018;4.282;2023-03-26T08:06:52;5.90;99.90
18906;DHT22;9585;51.018;4.282;2023-03-26T08:09:33;5.90;99.90
18906;DHT22;9585;51.018;4.282;2023-03-26T08:12:19;5.90;99.90
18906;DHT22;9585;51.018;4.282;2023-03-26T08:14:53;5.90;99.90
18906;DHT22;9585;51.018;4.282;2023-03-26T08:17:38;6.00;99.90
18906;DHT22;9585;51.018;4.282;2023-03-26T08:20:20;6.00;99.90
18906;DHT22;9585;51.018;4.282;2023-03-26T08:22:54;6.10;99.90
18906;DHT22;9585;51.018;4.282;2023-03-26T08:25:49;6.20;99.90
18906;DHT22;9585;51.018;4.282;2023-03-26T08:28:34;6.40;99.90
18906;DHT22;9585;51.018;4.282;2023-03-26T08:31:09;6.40;99.90
18906;DHT22;9585;51.018;4.282;2023-03-26T08:33:39;6.50;99.90
18906;DHT22;9585;51.018;4.282;2023-03-26T08:36:12;6.50;99.90
18906;DHT22;9585;51.018;4.282;2023-03-26T08:38:40;6.50;99.90
18906;DHT22;9585;51.018;4.282;2023-03-26T08:45:12;6.60;99.90
18906;DHT22;9585;51.018;4.282;2023-03-26T08:48:33;6.60;99.90
18906;DHT22;9585;51.018;4.282;2023-03-26T08:51:46;6.60;99.90
18906;DHT22;9585;51.018;4.282;2023-03-26T08:57:43;6.70;99.90
18906;DHT22;9585;51.018;4.282;2023-03-26T09:03:59;6.90;99.90
18906;DHT22;9585;51.018;4.282;2023-03-26T09:07:03;6.80;99.90
18906;DHT22;9585;51.018;4.282;2023-03-26T09:10:06;6.90;99.90
18906;DHT22;9585;51.018;4.282;2023-03-26T09:16:23;6.80;99.90
18906;DHT22;9585;51.018;4.282;2023-03-26T09:19:27;6.90;99.90
18906;DHT22;9585;51.018;4.282;2023-03-26T09:22:39;6.80;99.90
18906;DHT22;9585;51.018;4.282;2023-03-26T09:25:33;6.80;99.90
18906;DHT22;9585;51.018;4.282;2023-03-26T09:35:09;6.60;99.90
18906;DHT22;9585;51.018;4.282;2023-03-26T09:37:55;6.60;99.90
18906;DHT22;9585;51.018;4.282;2023-03-26T09:40:38;6.70;99.90
18906;DHT22;9585;51.018;4.282;2023-03-26T09:43:40;6.70;99.90
18906;DHT22;9585;51.018;4.282;2023-03-26T09:46:22;6.70;99.90
18906;DHT22;9585;51.018;4.282;2023-03-26T09:52:14;6.70;99.90
18906;DHT22;9585;51.018;4.282;2023-03-26T09:55:18;6.80;99.90
18906;DHT22;9585;51.018;4.282;2023-03-26T09:58:19;6.80;99.90
18906;DHT22;9585;51.018;4.282;2023-03-26T10:01:04;6.90;99.90
18906;DHT22;9585;51.018;4.282;2023-03-26T10:07:05;7.10;99.90
18906;DHT22;9585;51.018;4.282;2023-03-26T10:09:52;7.30;99.90
18906;DHT22;9585;51.018;4.282;2023-03-26T10:12:40;7.20;99.90
18906;DHT22;9585;51.018;4.282;2023-03-26T10:15:23;7.40;99.90
18906;DHT22;9585;51.018;4.282;2023-03-26T10:18:12;7.40;99.90
18906;DHT22;9585;51.018;4.282;2023-03-26T10:20:54;7.40;99.90
18906;DHT22;9585;51.018;4.282;2023-03-26T10:23:48;7.50;99.90
18906;DHT22;9585;51.018;4.282;2023-03-26T10:26:37;7.60;99.90
18906;DHT22;9585;51.018;4.282;2023-03-26T10:29:28;7.70;99.90
18906;DHT22;9585;51.018;4.282;2023-03-26T10:32:08;7.80;99.90
18906;DHT22;9585;51.018;4.282;2023-03-26T10:34:54;7.90;99.90
18906;DHT22;9585;51.018;4.282;2023-03-26T10:37:31;8.00;99.90
18906;DHT22;9585;51.018;4.282;2023-03-26T10:40:24;8.00;99.90
18906;DHT22;9585;51.018;4.282;2023-03-26T10:43:24;8.10;99.90
18906;DHT22;9585;51.018;4.282;2023-03-26T10:46:11;8.10;99.90
18906;DHT22;9585;51.018;4.282;2023-03-26T10:49:09;8.30;99.90
18906;DHT22;9585;51.018;4.282;2023-03-26T10:52:01;8.20;99.90
18906;DHT22;9585;51.018;4.282;2023-03-26T10:54:39;8.10;99.90
18906;DHT22;9585;51.018;4.282;2023-03-26T10:57:34;8.20;99.90
18906;DHT22;9585;51.018;4.282;2023-03-26T11:00:16;8.40;99.90
18906;DHT22;9585;51.018;4.282;2023-03-26T11:03:07;8.40;99.90
18906;DHT22;9585;51.018;4.282;2023-03-26T11:05:48;8.50;99.90
18906;DHT22;9585;51.018;4.282;2023-03-26T11:08:37;8.60;99.90
18906;DHT22;9585;51.018;4.282;2023-03-26T11:11:16;8.80;99.90
18906;DHT22;9585;51.018;4.282;2023-03-26T11:13:56;9.00;99.90
18906;DHT22;9585;51.018;4.282;2023-03-26T11:16:32;9.00;99.90
18906;DHT22;9585;51.018;4.282;2023-03-26T11:19:14;9.00;99.90
18906;DHT22;9585;51.018;4.282;2023-03-26T11:21:53;9.00;99.90
18906;DHT22;9585;51.018;4.282;2023-03-26T11:24:48;9.20;99.90
18906;DHT22;9585;51.018;4.282;2023-03-26T11:27:33;9.20;99.90
18906;DHT22;9585;51.018;4.282;2023-03-26T11:30:15;9.30;99.90
18906;DHT22;9585;51.018;4.282;2023-03-26T11:32:50;9.30;99.90
18906;DHT22;9585;51.018;4.282;2023-03-26T11:35:26;9.20;99.90
18906;DHT22;9585;51.018;4.282;2023-03-26T11:37:56;9.20;99.90
18906;DHT22;9585;51.018;4.282;2023-03-26T11:40:30;9.10;99.90
18906;DHT22;9585;51.018;4.282;2023-03-26T11:43:01;9.10;99.90
18906;DHT22;9585;51.018;4.282;2023-03-26T11:45:31;9.10;99.90
18906;DHT22;9585;51.018;4.282;2023-03-26T11:48:05;9.00;99.90
18906;DHT22;9585;51.018;4.282;2023-03-26T11:50:40;9.00;99.90
18906;DHT22;9585;51.018;4.282;2023-03-26T11:53:11;9.10;99.90
18906;DHT22;9585;51.018;4.282;2023-03-26T11:55:41;9.00;99.90
18906;DHT22;9585;51.018;4.282;2023-03-26T11:58:22;9.00;99.90
18906;DHT22;9585;51.018;4.282;2023-03-26T12:00:52;9.20;99.90
18906;DHT22;9585;51.018;4.282;2023-03-26T12:03:21;9.30;99.90
18906;DHT22;9585;51.018;4.282;2023-03-26T12:05:56;9.40;99.90
18906;DHT22;9585;51.018;4.282;2023-03-26T12:08:33;9.40;99.90
18906;DHT22;9585;51.018;4.282;2023-03-26T12:11:07;9.60;99.90
18906;DHT22;9585;51.018;4.282;2023-03-26T12:13:38;9.50;99.90
18906;DHT22;9585;51.018;4.282;2023-03-26T12:16:11;9.50;99.90
18906;DHT22;9585;51.018;4.282;2023-03-26T12:18:40;9.50;99.90
18906;DHT22;9585;51.018;4.282;2023-03-26T12:21:12;9.50;99.90
18906;DHT22;9585;51.018;4.282;2023-03-26T12:23:50;9.50;99.90
18906;DHT22;9585;51.018;4.282;2023-03-26T12:26:30;9.50;99.90
18906;DHT22;9585;51.018;4.282;2023-03-26T12:29:06;9.40;99.90
18906;DHT22;9585;51.018;4.282;2023-03-26T12:31:49;9.60;99.90
18906;DHT22;9585;51.018;4.282;2023-03-26T12:34:18;9.60;99.90
18906;DHT22;9585;51.018;4.282;2023-03-26T12:36:50;9.70;99.90
18906;DHT22;9585;51.018;4.282;2023-03-26T12:39:35;9.70;99.90
18906;DHT22;9585;51.018;4.282;2023-03-26T12:42:04;9.90;99.90
18906;DHT22;9585;51.018;4.282;2023-03-26T12:44:43;10.00;99.90
18906;DHT22;9585;51.018;4.282;2023-03-26T12:47:17;9.90;99.90
18906;DHT22;9585;51.018;4.282;2023-03-26T12:49:48;9.90;99.90
18906;DHT22;9585;51.018;4.282;2023-03-26T12:52:44;10.00;99.90
18906;DHT22;9585;51.018;4.282;2023-03-26T12:55:29;9.90;99.90
18906;DHT22;9585;51.018;4.282;2023-03-26T12:58:05;9.70;99.90
18906;DHT22;9585;51.018;4.282;2023-03-26T13:00:46;9.80;99.90
18906;DHT22;9585;51.018;4.282;2023-03-26T13:03:28;9.80;99.90
18906;DHT22;9585;51.018;4.282;2023-03-26T13:06:09;9.80;99.90
18906;DHT22;9585;51.018;4.282;2023-03-26T13:09:06;9.80;99.90
18906;DHT22;9585;51.018;4.282;2023-03-26T13:11:44;10.00;99.90
18906;DHT22;9585;51.018;4.282;2023-03-26T13:14:30;10.00;99.90
18906;DHT22;9585;51.018;4.282;2023-03-26T13:17:07;9.90;99.90
18906;DHT22;9585;51.018;4.282;2023-03-26T13:19:41;9.80;99.90
18906;DHT22;9585;51.018;4.282;2023-03-26T13:22:18;9.70;99.90
18906;DHT22;9585;51.018;4.282;2023-03-26T13:24:56;9.60;99.90
18906;DHT22;9585;51.018;4.282;2023-03-26T13:30:30;9.40;99.90
18906;DHT22;9585;51.018;4.282;2023-03-26T13:33:10;9.20;99.90
18906;DHT22;9585;51.018;4.282;2023-03-26T13:35:44;9.30;99.90
18906;DHT22;9585;51.018;4.282;2023-03-26T13:38:17;9.20;99.90
18906;DHT22;9585;51.018;4.282;2023-03-26T13:40:57;9.30;99.90
18906;DHT22;9585;51.018;4.282;2023-03-26T13:43:36;9.30;99.90
18906;DHT22;9585;51.018;4.282;2023-03-26T13:46:14;9.40;99.90
18906;DHT22;9585;51.018;4.282;2023-03-26T13:48:48;9.50;99.90
18906;DHT22;9585;51.018;4.282;2023-03-26T13:51:21;9.60;99.90
18906;DHT22;9585;51.018;4.282;2023-03-26T13:53:54;9.70;99.90
18906;DHT22;9585;51.018;4.282;2023-03-26T13:56:27;9.80;99.90
18906;DHT22;9585;51.018;4.282;2023-03-26T13:58:58;9.90;99.90
18906;DHT22;9585;51.018;4.282;2023-03-26T14:01:30;9.80;99.90
18906;DHT22;9585;51.018;4.282;2023-03-26T14:04:04;9.50;99.90
18906;DHT22;9585;51.018;4.282;2023-03-26T14:06:41;9.20;99.90
18906;DHT22;9585;51.018;4.282;2023-03-26T14:09:16;9.10;99.90
18906;DHT22;9585;51.018;4.282;2023-03-26T14:14:47;8.90;99.90
18906;DHT22;9585;51.018;4.282;2023-03-26T14:17:20;8.90;99.90
18906;DHT22;9585;51.018;4.282;2023-03-26T14:23:02;9.00;99.90
18906;DHT22;9585;51.018;4.282;2023-03-26T14:25:51;8.90;99.90
18906;DHT22;9585;51.018;4.282;2023-03-26T14:29:00;8.90;99.90
18906;DHT22;9585;51.018;4.282;2023-03-26T14:31:35;9.00;99.90
18906;DHT22;9585;51.018;4.282;2023-03-26T14:34:20;8.90;99.90
18906;DHT22;9585;51.018;4.282;2023-03-26T14:37:14;8.90;99.90
18906;DHT22;9585;51.018;4.282;2023-03-26T14:40:20;8.90;99.90
18906;DHT22;9585;51.018;4.282;2023-03-26T14:42:52;8.80;99.90
18906;DHT22;9585;51.018;4.282;2023-03-26T14:48:47;8.90;99.90
18906;DHT22;9585;51.018;4.282;2023-03-26T14:51:35;8.90;99.90
18906;DHT22;9585;51.018;4.282;2023-03-26T14:54:09;8.70;99.90
18906;DHT22;9585;51.018;4.282;2023-03-26T14:57:15;8.70;99.90
18906;DHT22;9585;51.018;4.282;2023-03-26T15:06:25;8.80;99.90
18906;DHT22;9585;51.018;4.282;2023-03-26T15:09:33;8.80;99.90
18906;DHT22;9585;51.018;4.282;2023-03-26T15:12:23;8.70;99.90
18906;DHT22;9585;51.018;4.282;2023-03-26T15:15:31;8.60;99.90
18906;DHT22;9585;51.018;4.282;2023-03-26T15:27:45;8.50;99.90
18906;DHT22;9585;51.018;4.282;2023-03-26T15:30:43;8.60;99.90
18906;DHT22;9585;51.018;4.282;2023-03-26T15:36:57;8.50;99.90
18906;DHT22;9585;51.018;4.282;2023-03-26T15:40:07;8.50;99.90
18906;DHT22;9585;51.018;4.282;2023-03-26T15:42:54;8.60;99.90
18906;DHT22;9585;51.018;4.282;2023-03-26T15:45:33;8.60;99.90
18906;DHT22;9585;51.018;4.282;2023-03-26T15:48:28;8.60;99.90
18906;DHT22;9585;51.018;4.282;2023-03-26T15:51:13;8.60;99.90
18906;DHT22;9585;51.018;4.282;2023-03-26T15:53:47;8.50;99.90
18906;DHT22;9585;51.018;4.282;2023-03-26T15:56:25;8.30;99.90
18906;DHT22;9585;51.018;4.282;2023-03-26T15:59:02;8.40;99.90
18906;DHT22;9585;51.018;4.282;2023-03-26T16:01:42;8.50;99.90
18906;DHT22;9585;51.018;4.282;2023-03-26T16:04:38;8.50;99.90
18906;DHT22;9585;51.018;4.282;2023-03-26T16:07:21;8.40;99.90
18906;DHT22;9585;51.018;4.282;2023-03-26T16:09:59;8.40;99.90
18906;DHT22;9585;51.018;4.282;2023-03-26T16:12:53;8.40;99.90
18906;DHT22;9585;51.018;4.282;2023-03-26T16:15:29;8.60;99.90
18906;DHT22;9585;51.018;4.282;2023-03-26T16:18:17;8.60;99.90
18906;DHT22;9585;51.018;4.282;2023-03-26T16:20:48;8.60;99.90
18906;DHT22;9585;51.018;4.282;2023-03-26T16:23:33;8.70;99.90
18906;DHT22;9585;51.018;4.282;2023-03-26T16:26:17;8.70;99.90
18906;DHT22;9585;51.018;4.282;2023-03-26T16:29:16;8.60;99.90
18906;DHT22;9585;51.018;4.282;2023-03-26T16:32:12;8.50;99.90
18906;DHT22;9585;51.018;4.282;2023-03-26T16:34:46;8.40;99.90
18906;DHT22;9585;51.018;4.282;2023-03-26T16:37:40;8.40;99.90
18906;DHT22;9585;51.018;4.282;2023-03-26T16:43:38;8.40;99.90
18906;DHT22;9585;51.018;4.282;2023-03-26T16:46:33;8.50;99.90
18906;DHT22;9585;51.018;4.282;2023-03-26T16:49:14;8.50;99.90
18906;DHT22;9585;51.018;4.282;2023-03-26T16:52:03;8.50;99.90
18906;DHT22;9585;51.018;4.282;2023-03-26T16:54:42;8.40;99.90
18906;DHT22;9585;51.018;4.282;2023-03-26T16:57:23;8.30;99.90
18906;DHT22;9585;51.018;4.282;2023-03-26T17:00:03;8.30;99.90
18906;DHT22;9585;51.018;4.282;2023-03-26T17:02:33;8.20;99.90
18906;DHT22;9585;51.018;4.282;2023-03-26T17:05:18;8.30;99.90
18906;DHT22;9585;51.018;4.282;2023-03-26T17:07:52;8.30;99.90
18906;DHT22;9585;51.018;4.282;2023-03-26T17:10:27;8.30;99.90
18906;DHT22;9585;51.018;4.282;2023-03-26T17:13:01;8.20;99.90
18906;DHT22;9585;51.018;4.282;2023-03-26T17:15:38;8.20;99.90
18906;DHT22;9585;51.018;4.282;2023-03-26T17:18:26;8.20;99.90
18906;DHT22;9585;51.018;4.282;2023-03-26T17:21:03;8.30;99.90
18906;DHT22;9585;51.018;4.282;2023-03-26T17:23:50;8.30;99.90
18906;DHT22;9585;51.018;4.282;2023-03-26T17:26:24;8.40;99.90
18906;DHT22;9585;51.018;4.282;2023-03-26T17:29:00;8.30;99.90
18906;DHT22;9585;51.018;4.282;2023-03-26T17:31:40;8.20;99.90
18906;DHT22;9585;51.018;4.282;2023-03-26T17:37:39;8.20;99.90
18906;DHT22;9585;51.018;4.282;2023-03-26T17:40:46;8.00;99.90
18906;DHT22;9585;51.018;4.282;2023-03-26T17:43:47;8.00;99.90
18906;DHT22;9585;51.018;4.282;2023-03-26T17:46:27;8.00;99.90
18906;DHT22;9585;51.018;4.282;2023-03-26T17:49:02;8.00;99.90
18906;DHT22;9585;51.018;4.282;2023-03-26T17:51:45;8.10;99.90
18906;DHT22;9585;51.018;4.282;2023-03-26T17:54:19;7.90;99.90
18906;DHT22;9585;51.018;4.282;2023-03-26T17:56:51;7.80;99.90
18906;DHT22;9585;51.018;4.282;2023-03-26T17:59:20;7.80;99.90
18906;DHT22;9585;51.018;4.282;2023-03-26T18:01:51;7.90;99.90
18906;DHT22;9585;51.018;4.282;2023-03-26T18:04:35;8.00;99.90
18906;DHT22;9585;51.018;4.282;2023-03-26T18:07:38;8.00;99.90
18906;DHT22;9585;51.018;4.282;2023-03-26T18:16:18;7.70;99.90
18906;DHT22;9585;51.018;4.282;2023-03-26T18:18:51;7.60;99.90
18906;DHT22;9585;51.018;4.282;2023-03-26T18:21:26;7.50;99.90
18906;DHT22;9585;51.018;4.282;2023-03-26T18:23:57;7.40;99.90